createdAt,value
2022-10-21T00:00:56.928Z,60.01
2022-10-21T00:07:44.961Z,60.48
2022-10-21T00:14:30.371Z,60.21
2022-10-21T00:21:19.339Z,60.23
2022-10-21T00:28:07.393Z,60.24
2022-10-21T00:34:52.748Z,60.09
2022-10-21T00:41:38.087Z,59.87
2022-10-21T00:48:34.458Z,60.23
2022-10-21T00:55:19.983Z,59.86
2022-10-21T01:02:06.461Z,60.06
2022-10-21T01:08:55.185Z,60.12
2022-10-21T01:15:47.250Z,60.43
2022-10-21T01:22:59.364Z,60.63
2022-10-21T01:30:11.526Z,60.60
2022-10-21T01:37:07.880Z,60.57
2022-10-21T01:44:02.845Z,60.29
2022-10-21T01:50:53.816Z,60.02
2022-10-21T01:57:47.185Z,60.08
2022-10-21T02:04:34.569Z,60.52
2022-10-21T02:11:20.829Z,59.85
2022-10-21T02:18:11.330Z,59.40
2022-10-21T02:25:00.693Z,60.25
2022-10-21T02:32:10.898Z,60.54
2022-10-21T02:39:06.256Z,60.14
2022-10-21T03:00:13.866Z,59.73
2022-10-21T03:06:59.243Z,60.04
2022-10-21T03:13:44.589Z,59.87
2022-10-21T03:20:32.565Z,59.73
2022-10-21T03:27:17.913Z,60.04
2022-10-21T03:34:03.309Z,59.80
2022-10-21T03:40:52.605Z,59.66
2022-10-21T03:47:37.995Z,59.44
2022-10-21T03:54:23.400Z,59.56
2022-10-21T04:01:15.473Z,59.23
2022-10-21T04:08:01.077Z,59.31
2022-10-21T04:14:46.546Z,59.01
2022-10-21T04:21:34.489Z,58.96
2022-10-21T04:28:20.001Z,59.29
2022-10-21T04:35:07.622Z,59.42
2022-10-21T04:41:56.056Z,59.22
2022-10-21T04:48:41.534Z,58.97
2022-10-21T04:55:26.913Z,58.88
2022-10-21T05:02:15.197Z,59.17
2022-10-21T05:09:00.890Z,59.21
2022-10-21T05:15:46.281Z,59.51
2022-10-21T05:22:34.260Z,59.44
2022-10-21T05:29:19.849Z,59.38
2022-10-21T05:36:08.731Z,59.69
2022-10-21T05:42:56.672Z,59.45
2022-10-21T05:49:42.057Z,59.16
2022-10-21T05:56:27.446Z,59.60
2022-10-21T06:03:15.386Z,59.41
2022-10-21T06:10:00.744Z,59.71
2022-10-21T06:16:46.263Z,59.24
2022-10-21T06:23:34.297Z,59.87
2022-10-21T06:30:19.825Z,59.53
2022-10-21T06:37:05.186Z,59.42
2022-10-21T06:43:53.125Z,59.68
2022-10-21T06:50:40.420Z,59.76
2022-10-21T06:57:27.739Z,59.78
2022-10-21T07:04:15.752Z,60.30
2022-10-21T07:11:04.944Z,60.67
2022-10-21T07:17:50.277Z,60.82
2022-10-21T07:24:38.894Z,61.65
2022-10-21T07:31:25.024Z,63.05
2022-10-21T07:38:12.293Z,63.71
2022-10-21T07:45:02.245Z,64.86
2022-10-21T07:51:50.222Z,66.03
2022-10-21T07:58:36.255Z,66.47
2022-10-21T08:05:24.293Z,67.34
2022-10-21T08:12:12.932Z,67.59
2022-10-21T08:19:03.491Z,68.41
2022-10-21T08:25:58.670Z,69.23
2022-10-21T08:32:44.095Z,69.71
2022-10-21T08:39:29.905Z,70.17
2022-10-21T08:46:24.507Z,70.78
2022-10-21T08:53:17.796Z,71.22
2022-10-21T09:00:03.293Z,71.36
2022-10-21T09:07:00.774Z,72.54
2022-10-21T09:14:04.409Z,73.20
2022-10-21T09:21:03.188Z,73.49
2022-10-21T09:27:56.800Z,74.06
2022-10-21T09:34:50.635Z,74.84
2022-10-21T09:41:41.858Z,74.61
2022-10-21T09:48:55.056Z,75.59
2022-10-21T09:55:52.549Z,74.93
2022-10-21T10:02:43.269Z,75.33
2022-10-21T10:09:34.178Z,75.05
2022-10-21T10:16:28.473Z,75.19
2022-10-21T10:23:22.025Z,74.94
2022-10-21T10:30:17.484Z,74.20
2022-10-21T10:37:07.720Z,74.35
2022-10-21T10:43:56.303Z,74.50
2022-10-21T10:50:50.792Z,75.00
2022-10-21T10:57:45.922Z,75.18
2022-10-21T11:04:45.481Z,76.00
2022-10-21T11:11:40.089Z,76.55
2022-10-21T11:18:35.674Z,77.60
2022-10-21T11:25:27.976Z,78.19
2022-10-21T11:32:30.816Z,78.65
2022-10-21T11:39:45.790Z,79.94
2022-10-21T11:46:42.217Z,80.71
2022-10-21T11:54:02.461Z,80.61
2022-10-21T12:01:02.202Z,80.97
2022-10-21T12:08:08.033Z,81.30
2022-10-21T12:15:02.385Z,81.33
2022-10-21T12:21:49.266Z,81.67
2022-10-21T12:28:41.796Z,82.38
2022-10-21T12:35:50.541Z,82.88
2022-10-21T12:42:37.429Z,82.16
2022-10-21T12:49:27.560Z,82.88
2022-10-21T12:56:29.246Z,82.68
2022-10-21T13:03:16.408Z,82.12
2022-10-21T13:10:28.621Z,82.54
2022-10-21T13:17:49.048Z,81.97
2022-10-21T13:24:36.086Z,81.58
2022-10-21T13:31:24.817Z,81.15
2022-10-21T13:38:25.145Z,80.60
2022-10-21T13:45:27.162Z,80.03
2022-10-21T13:52:14.296Z,79.11
2022-10-21T13:59:04.858Z,78.49
2022-10-21T14:05:53.350Z,78.04
2022-10-21T14:12:42.952Z,77.87
2022-10-21T14:19:35.384Z,77.96
2022-10-21T14:26:21.515Z,77.64
2022-10-21T14:33:15.113Z,77.55
2022-10-21T14:40:26.443Z,77.49
2022-10-21T14:47:21.341Z,77.41
2022-10-21T14:54:09.210Z,77.30
2022-10-21T15:01:04.888Z,77.82
2022-10-21T15:07:50.262Z,77.35
2022-10-21T15:14:35.667Z,77.57
2022-10-21T15:21:37.486Z,77.49
2022-10-21T15:28:23.488Z,77.50
2022-10-21T15:35:16.910Z,77.27
2022-10-21T15:42:05.337Z,76.99
2022-10-21T15:48:50.893Z,77.28
2022-10-21T15:55:38.086Z,77.21
2022-10-21T16:02:26.027Z,77.16
2022-10-21T16:09:14.698Z,76.90
2022-10-21T16:16:05.056Z,77.15
2022-10-21T16:22:53.169Z,77.11
2022-10-21T16:29:38.538Z,76.83
2022-10-21T16:36:27.662Z,76.78
2022-10-21T16:43:16.345Z,76.73
2022-10-21T16:50:05.188Z,77.06
2022-10-21T16:56:53.354Z,76.64
2022-10-21T17:03:43.138Z,75.53
2022-10-21T17:10:28.508Z,74.41
2022-10-21T17:17:15.094Z,73.61
2022-10-21T17:24:04.734Z,73.58
2022-10-21T17:30:50.957Z,73.94
2022-10-21T17:37:36.238Z,74.17
2022-10-21T17:44:24.908Z,74.99
2022-10-21T17:51:11.453Z,75.69
2022-10-21T17:57:56.910Z,75.71
2022-10-21T18:04:45.288Z,75.68
2022-10-21T18:11:31.221Z,75.62
2022-10-21T18:18:16.625Z,75.46
2022-10-21T18:25:04.792Z,75.50
2022-10-21T18:31:50.886Z,75.19
2022-10-21T18:38:36.238Z,75.26
2022-10-21T18:45:24.357Z,75.33
2022-10-21T18:52:11.479Z,74.57
2022-10-21T18:58:58.954Z,73.08
2022-10-21T19:05:46.933Z,72.10
2022-10-21T19:12:32.279Z,71.92
2022-10-21T19:19:19.053Z,72.92
2022-10-21T19:26:09.332Z,73.02
2022-10-21T19:32:54.935Z,73.02
2022-10-21T19:39:40.355Z,73.14
2022-10-21T19:46:30.456Z,73.33
2022-10-21T19:53:16.001Z,73.25
2022-10-21T20:00:04.500Z,72.75
2022-10-21T20:07:00.157Z,73.28
2022-10-21T20:13:47.839Z,72.91
2022-10-21T20:20:33.184Z,72.88
2022-10-21T20:27:21.279Z,73.03
2022-10-21T20:34:06.928Z,71.91
2022-10-21T20:41:02.390Z,71.95
2022-10-21T20:47:50.374Z,71.60
2022-10-21T20:54:35.920Z,71.34
2022-10-21T21:01:25.737Z,71.06
2022-10-21T21:08:14.115Z,70.74
2022-10-21T21:14:59.476Z,70.36
2022-10-21T21:21:44.881Z,70.33
2022-10-21T21:28:35.560Z,70.36
2022-10-21T21:35:21.739Z,70.21
2022-10-21T21:42:08.276Z,70.67
2022-10-21T21:49:04.747Z,71.37
2022-10-21T21:55:51.081Z,71.35
2022-10-21T22:02:36.469Z,71.70
2022-10-21T22:09:24.376Z,71.80
2022-10-21T22:16:13.317Z,71.59
2022-10-21T22:22:58.707Z,72.08
2022-10-21T22:29:46.654Z,72.24
2022-10-21T22:36:32.462Z,72.36
2022-10-21T22:43:17.813Z,71.98
2022-10-21T22:50:06.128Z,72.24
2022-10-21T22:56:51.509Z,72.68
2022-10-21T23:03:36.904Z,72.25
2022-10-21T23:10:25.261Z,72.62
2022-10-21T23:17:10.609Z,72.50
2022-10-21T23:23:56.064Z,72.34
2022-10-21T23:30:44.349Z,72.45
2022-10-21T23:37:29.868Z,72.07
2022-10-21T23:44:15.273Z,71.88
2022-10-21T23:51:04.281Z,72.29
2022-10-21T23:57:49.833Z,72.41
